CheckWX is a tool to help pilots better visualize weather data.  It is not intended as a substitute for an official pre-flight weather briefing.

21:02:19 UTC

KMYF METAR
Montgomery-Gibbs Executive Airport
San Diego, California, USA
Current

9 mins ago

KMYF 232053Z COR 24008KT 10SM SCT026 BKN031 BKN041 17/10 A3002 RMK AO2 SLP163 T01720100 50005
Observed
May-23 @ 20:53 UTC
Wind
  • 240° at 8 KTS
Visibility
10 SM
Flight Rules
VFR
Cloud Levels
  • Scattered at 2,600' AGL
  • Broken at 3,100' AGL
  • Broken at 4,100' AGL
Temperature
17°C / 63°F
Dewpoint
10°C / 50°F
Humidity
64%
Altimeter
30.02" Hg
Pressure
1016.62 hPa
Previous

60 mins ago

KMYF 232002Z 24010KT 10SM FEW022 BKN035 BKN055 17/11 A3002 RMK AO2 T01720106
Observed
May-23 @ 20:02 UTC
Wind
  • 240° at 10 KTS
Visibility
10 SM
Flight Rules
VFR
Cloud Levels
  • Few at 2,200' AGL
  • Broken at 3,500' AGL
  • Broken at 5,500' AGL
Temperature
17°C / 63°F
Dewpoint
11°C / 52°F
Humidity
68%
Altimeter
30.02" Hg
Pressure
1016.62 hPa
Previous

2 hours ago

KMYF 231853Z 23008KT 10SM BKN026 BKN044 OVC055 17/10 A3002 RMK AO2 SLP162 T01670100
Observed
May-23 @ 18:53 UTC
Wind
  • 230° at 8 KTS
Visibility
10 SM
Flight Rules
MVFR
Cloud Levels
  • Broken at 2,600' AGL
  • Broken at 4,400' AGL
  • Overcast at 5,500' AGL
Temperature
17°C / 63°F
Dewpoint
10°C / 50°F
Humidity
64%
Altimeter
30.02" Hg
Pressure
1016.62 hPa